sensor_id;sensor_type;location;lat;lon;timestamp;P1;durP1;ratioP1;P2;durP2;ratioP2
19280;SDS011;9774;52.034;5.342;2022-07-04T00:01:04;2.67;;;0.65;;
19280;SDS011;9774;52.034;5.342;2022-07-04T00:03:32;2.72;;;0.82;;
19280;SDS011;9774;52.034;5.342;2022-07-04T00:05:59;1.67;;;0.70;;
19280;SDS011;9774;52.034;5.342;2022-07-04T00:08:26;1.35;;;0.60;;
19280;SDS011;9774;52.034;5.342;2022-07-04T00:10:54;2.00;;;0.60;;
19280;SDS011;9774;52.034;5.342;2022-07-04T00:13:21;0.70;;;0.70;;
19280;SDS011;9774;52.034;5.342;2022-07-04T00:15:50;1.75;;;0.77;;
19280;SDS011;9774;52.034;5.342;2022-07-04T00:18:17;1.10;;;0.70;;
19280;SDS011;9774;52.034;5.342;2022-07-04T00:20:44;2.20;;;1.02;;
19280;SDS011;9774;52.034;5.342;2022-07-04T00:23:11;2.45;;;0.90;;
19280;SDS011;9774;52.034;5.342;2022-07-04T00:25:39;0.65;;;0.50;;
19280;SDS011;9774;52.034;5.342;2022-07-04T00:28:06;0.70;;;0.60;;
19280;SDS011;9774;52.034;5.342;2022-07-04T00:30:33;2.53;;;0.73;;
19280;SDS011;9774;52.034;5.342;2022-07-04T00:33:02;3.72;;;1.00;;
19280;SDS011;9774;52.034;5.342;2022-07-04T00:35:29;1.25;;;0.80;;
19280;SDS011;9774;52.034;5.342;2022-07-04T00:37:56;0.85;;;0.60;;
19280;SDS011;9774;52.034;5.342;2022-07-04T00:40:24;0.98;;;0.70;;
19280;SDS011;9774;52.034;5.342;2022-07-04T00:42:51;4.68;;;1.17;;
19280;SDS011;9774;52.034;5.342;2022-07-04T00:45:18;1.25;;;0.57;;
19280;SDS011;9774;52.034;5.342;2022-07-04T00:47:46;1.33;;;0.70;;
19280;SDS011;9774;52.034;5.342;2022-07-04T00:50:14;1.05;;;0.57;;
19280;SDS011;9774;52.034;5.342;2022-07-04T00:52:42;1.23;;;0.75;;
19280;SDS011;9774;52.034;5.342;2022-07-04T00:55:09;1.20;;;0.80;;
19280;SDS011;9774;52.034;5.342;2022-07-04T00:57:37;1.90;;;0.70;;
19280;SDS011;9774;52.034;5.342;2022-07-04T01:00:05;1.23;;;0.88;;
19280;SDS011;9774;52.034;5.342;2022-07-04T01:02:33;1.27;;;0.90;;
19280;SDS011;9774;52.034;5.342;2022-07-04T01:05:00;3.35;;;1.10;;
19280;SDS011;9774;52.034;5.342;2022-07-04T01:07:29;0.90;;;0.65;;
19280;SDS011;9774;52.034;5.342;2022-07-04T01:09:56;1.23;;;0.80;;
19280;SDS011;9774;52.034;5.342;2022-07-04T01:12:25;1.55;;;0.90;;
19280;SDS011;9774;52.034;5.342;2022-07-04T01:14:52;1.42;;;0.90;;
19280;SDS011;9774;52.034;5.342;2022-07-04T01:17:20;3.20;;;1.13;;
19280;SDS011;9774;52.034;5.342;2022-07-04T01:19:47;2.72;;;1.23;;
19280;SDS011;9774;52.034;5.342;2022-07-04T01:22:16;1.25;;;1.08;;
19280;SDS011;9774;52.034;5.342;2022-07-04T01:24:44;1.83;;;1.20;;
19280;SDS011;9774;52.034;5.342;2022-07-04T01:27:12;1.77;;;1.33;;
19280;SDS011;9774;52.034;5.342;2022-07-04T01:29:40;3.58;;;1.15;;
19280;SDS011;9774;52.034;5.342;2022-07-04T01:32:08;1.95;;;1.20;;
19280;SDS011;9774;52.034;5.342;2022-07-04T01:34:36;2.97;;;1.20;;
19280;SDS011;9774;52.034;5.342;2022-07-04T01:37:04;2.80;;;0.98;;
19280;SDS011;9774;52.034;5.342;2022-07-04T01:39:33;2.15;;;1.17;;
19280;SDS011;9774;52.034;5.342;2022-07-04T01:42:00;1.40;;;0.98;;
19280;SDS011;9774;52.034;5.342;2022-07-04T01:44:28;1.00;;;0.82;;
19280;SDS011;9774;52.034;5.342;2022-07-04T01:46:55;0.73;;;0.70;;
19280;SDS011;9774;52.034;5.342;2022-07-04T01:49:22;1.88;;;0.93;;
19280;SDS011;9774;52.034;5.342;2022-07-04T01:51:50;1.67;;;1.30;;
19280;SDS011;9774;52.034;5.342;2022-07-04T01:54:17;1.00;;;0.90;;
19280;SDS011;9774;52.034;5.342;2022-07-04T01:56:46;2.92;;;0.90;;
19280;SDS011;9774;52.034;5.342;2022-07-04T01:59:14;1.83;;;0.90;;
19280;SDS011;9774;52.034;5.342;2022-07-04T02:01:41;1.00;;;0.88;;
19280;SDS011;9774;52.034;5.342;2022-07-04T02:04:08;1.75;;;0.90;;
19280;SDS011;9774;52.034;5.342;2022-07-04T02:06:35;1.77;;;1.15;;
19280;SDS011;9774;52.034;5.342;2022-07-04T02:09:02;1.13;;;0.88;;
19280;SDS011;9774;52.034;5.342;2022-07-04T02:11:42;1.20;;;0.90;;
19280;SDS011;9774;52.034;5.342;2022-07-04T02:14:29;2.25;;;1.10;;
19280;SDS011;9774;52.034;5.342;2022-07-04T02:16:57;2.10;;;1.20;;
19280;SDS011;9774;52.034;5.342;2022-07-04T02:19:24;1.90;;;1.15;;
19280;SDS011;9774;52.034;5.342;2022-07-04T02:21:52;2.35;;;1.00;;
19280;SDS011;9774;52.034;5.342;2022-07-04T02:24:19;1.80;;;0.70;;
19280;SDS011;9774;52.034;5.342;2022-07-04T02:26:47;1.10;;;1.00;;
19280;SDS011;9774;52.034;5.342;2022-07-04T02:29:14;1.73;;;1.13;;
19280;SDS011;9774;52.034;5.342;2022-07-04T02:31:44;1.90;;;1.10;;
19280;SDS011;9774;52.034;5.342;2022-07-04T02:34:11;1.75;;;1.40;;
19280;SDS011;9774;52.034;5.342;2022-07-04T02:36:39;2.20;;;1.20;;
19280;SDS011;9774;52.034;5.342;2022-07-04T02:39:07;2.20;;;1.35;;
19280;SDS011;9774;52.034;5.342;2022-07-04T02:41:34;2.53;;;1.65;;
19280;SDS011;9774;52.034;5.342;2022-07-04T02:44:02;1.33;;;1.05;;
19280;SDS011;9774;52.034;5.342;2022-07-04T02:46:29;1.58;;;1.08;;
19280;SDS011;9774;52.034;5.342;2022-07-04T02:48:59;2.22;;;1.85;;
19280;SDS011;9774;52.034;5.342;2022-07-04T02:51:26;1.48;;;1.27;;
19280;SDS011;9774;52.034;5.342;2022-07-04T02:53:54;1.58;;;1.23;;
19280;SDS011;9774;52.034;5.342;2022-07-04T02:56:21;1.85;;;1.20;;
19280;SDS011;9774;52.034;5.342;2022-07-04T02:58:49;2.40;;;1.40;;
19280;SDS011;9774;52.034;5.342;2022-07-04T03:01:16;1.88;;;1.20;;
19280;SDS011;9774;52.034;5.342;2022-07-04T03:03:45;1.50;;;1.40;;
19280;SDS011;9774;52.034;5.342;2022-07-04T03:06:14;2.95;;;1.52;;
19280;SDS011;9774;52.034;5.342;2022-07-04T03:08:42;1.88;;;1.40;;
19280;SDS011;9774;52.034;5.342;2022-07-04T03:11:09;2.97;;;1.73;;
19280;SDS011;9774;52.034;5.342;2022-07-04T03:13:38;2.25;;;1.70;;
19280;SDS011;9774;52.034;5.342;2022-07-04T03:16:06;2.10;;;1.50;;
19280;SDS011;9774;52.034;5.342;2022-07-04T03:18:33;1.92;;;1.52;;
19280;SDS011;9774;52.034;5.342;2022-07-04T03:21:00;2.75;;;1.95;;
19280;SDS011;9774;52.034;5.342;2022-07-04T03:23:30;3.80;;;1.65;;
19280;SDS011;9774;52.034;5.342;2022-07-04T03:25:58;2.58;;;1.77;;
19280;SDS011;9774;52.034;5.342;2022-07-04T03:28:26;1.90;;;1.80;;
19280;SDS011;9774;52.034;5.342;2022-07-04T03:30:54;2.17;;;1.70;;
19280;SDS011;9774;52.034;5.342;2022-07-04T03:33:22;2.00;;;1.60;;
19280;SDS011;9774;52.034;5.342;2022-07-04T03:35:49;3.15;;;1.70;;
19280;SDS011;9774;52.034;5.342;2022-07-04T03:38:16;2.90;;;1.88;;
19280;SDS011;9774;52.034;5.342;2022-07-04T03:40:45;2.20;;;2.00;;
19280;SDS011;9774;52.034;5.342;2022-07-04T03:43:12;2.85;;;2.15;;
19280;SDS011;9774;52.034;5.342;2022-07-04T03:45:39;3.13;;;2.03;;
19280;SDS011;9774;52.034;5.342;2022-07-04T03:48:08;3.03;;;2.20;;
19280;SDS011;9774;52.034;5.342;2022-07-04T03:50:35;2.53;;;1.80;;
19280;SDS011;9774;52.034;5.342;2022-07-04T03:53:03;2.10;;;1.65;;
19280;SDS011;9774;52.034;5.342;2022-07-04T03:55:33;2.95;;;1.85;;
19280;SDS011;9774;52.034;5.342;2022-07-04T03:58:02;2.22;;;1.77;;
19280;SDS011;9774;52.034;5.342;2022-07-04T04:00:29;5.65;;;3.10;;
19280;SDS011;9774;52.034;5.342;2022-07-04T04:02:57;3.90;;;2.20;;
19280;SDS011;9774;52.034;5.342;2022-07-04T04:05:24;3.78;;;2.53;;
19280;SDS011;9774;52.034;5.342;2022-07-04T04:07:55;3.00;;;2.25;;
19280;SDS011;9774;52.034;5.342;2022-07-04T04:10:24;4.13;;;2.25;;
19280;SDS011;9774;52.034;5.342;2022-07-04T04:12:52;2.75;;;2.47;;
19280;SDS011;9774;52.034;5.342;2022-07-04T04:15:21;3.13;;;2.60;;
19280;SDS011;9774;52.034;5.342;2022-07-04T04:17:48;2.80;;;2.50;;
19280;SDS011;9774;52.034;5.342;2022-07-04T04:20:15;2.88;;;2.60;;
19280;SDS011;9774;52.034;5.342;2022-07-04T04:22:43;4.32;;;2.63;;
19280;SDS011;9774;52.034;5.342;2022-07-04T04:25:10;5.25;;;2.80;;
19280;SDS011;9774;52.034;5.342;2022-07-04T04:27:38;3.33;;;2.85;;
19280;SDS011;9774;52.034;5.342;2022-07-04T04:30:05;3.55;;;3.03;;
19280;SDS011;9774;52.034;5.342;2022-07-04T04:32:35;3.63;;;2.85;;
19280;SDS011;9774;52.034;5.342;2022-07-04T04:35:02;3.28;;;2.40;;
19280;SDS011;9774;52.034;5.342;2022-07-04T04:37:30;6.38;;;3.10;;
19280;SDS011;9774;52.034;5.342;2022-07-04T04:39:57;3.45;;;2.85;;
19280;SDS011;9774;52.034;5.342;2022-07-04T04:42:25;2.63;;;2.10;;
19280;SDS011;9774;52.034;5.342;2022-07-04T04:44:52;2.78;;;2.50;;
19280;SDS011;9774;52.034;5.342;2022-07-04T04:47:19;2.75;;;2.42;;
19280;SDS011;9774;52.034;5.342;2022-07-04T04:49:48;3.00;;;2.28;;
19280;SDS011;9774;52.034;5.342;2022-07-04T04:52:15;3.90;;;2.40;;
19280;SDS011;9774;52.034;5.342;2022-07-04T04:54:42;3.83;;;2.47;;
19280;SDS011;9774;52.034;5.342;2022-07-04T04:57:10;4.13;;;2.63;;
19280;SDS011;9774;52.034;5.342;2022-07-04T04:59:37;3.20;;;2.55;;
19280;SDS011;9774;52.034;5.342;2022-07-04T05:02:05;3.28;;;2.42;;
19280;SDS011;9774;52.034;5.342;2022-07-04T05:04:32;4.22;;;2.38;;
19280;SDS011;9774;52.034;5.342;2022-07-04T05:07:01;4.68;;;2.70;;
19280;SDS011;9774;52.034;5.342;2022-07-04T05:09:28;2.75;;;2.55;;
19280;SDS011;9774;52.034;5.342;2022-07-04T05:11:55;4.30;;;2.50;;
19280;SDS011;9774;52.034;5.342;2022-07-04T05:14:23;2.85;;;2.50;;
19280;SDS011;9774;52.034;5.342;2022-07-04T05:16:50;4.53;;;2.80;;
19280;SDS011;9774;52.034;5.342;2022-07-04T05:19:17;3.70;;;2.70;;
19280;SDS011;9774;52.034;5.342;2022-07-04T05:21:48;3.13;;;2.38;;
19280;SDS011;9774;52.034;5.342;2022-07-04T05:24:16;5.82;;;2.90;;
19280;SDS011;9774;52.034;5.342;2022-07-04T05:26:44;2.75;;;2.20;;
19280;SDS011;9774;52.034;5.342;2022-07-04T05:29:11;5.45;;;2.50;;
19280;SDS011;9774;52.034;5.342;2022-07-04T05:31:39;6.25;;;2.42;;
19280;SDS011;9774;52.034;5.342;2022-07-04T05:34:06;4.70;;;2.60;;
19280;SDS011;9774;52.034;5.342;2022-07-04T05:36:33;3.83;;;2.65;;
19280;SDS011;9774;52.034;5.342;2022-07-04T05:39:00;4.40;;;2.33;;
19280;SDS011;9774;52.034;5.342;2022-07-04T05:41:29;3.70;;;2.42;;
19280;SDS011;9774;52.034;5.342;2022-07-04T05:43:57;4.90;;;2.20;;
19280;SDS011;9774;52.034;5.342;2022-07-04T05:46:24;4.38;;;2.30;;
19280;SDS011;9774;52.034;5.342;2022-07-04T05:48:51;4.05;;;2.38;;
19280;SDS011;9774;52.034;5.342;2022-07-04T05:51:19;2.75;;;2.50;;
19280;SDS011;9774;52.034;5.342;2022-07-04T05:53:46;2.58;;;2.00;;
19280;SDS011;9774;52.034;5.342;2022-07-04T05:56:14;5.00;;;2.00;;
19280;SDS011;9774;52.034;5.342;2022-07-04T05:58:42;4.22;;;2.13;;
19280;SDS011;9774;52.034;5.342;2022-07-04T06:01:10;2.13;;;1.65;;
19280;SDS011;9774;52.034;5.342;2022-07-04T06:03:37;3.42;;;2.00;;
19280;SDS011;9774;52.034;5.342;2022-07-04T06:06:05;4.72;;;1.65;;
19280;SDS011;9774;52.034;5.342;2022-07-04T06:08:33;2.53;;;2.00;;
19280;SDS011;9774;52.034;5.342;2022-07-04T06:11:00;2.90;;;1.60;;
19280;SDS011;9774;52.034;5.342;2022-07-04T06:13:28;2.28;;;1.73;;
19280;SDS011;9774;52.034;5.342;2022-07-04T06:15:57;5.80;;;2.03;;
19280;SDS011;9774;52.034;5.342;2022-07-04T06:18:24;3.92;;;1.85;;
19280;SDS011;9774;52.034;5.342;2022-07-04T06:20:52;1.45;;;1.33;;
19280;SDS011;9774;52.034;5.342;2022-07-04T06:23:19;5.75;;;1.90;;
19280;SDS011;9774;52.034;5.342;2022-07-04T06:25:46;6.38;;;2.08;;
19280;SDS011;9774;52.034;5.342;2022-07-04T06:28:14;3.03;;;1.60;;
19280;SDS011;9774;52.034;5.342;2022-07-04T06:30:42;3.58;;;1.80;;
19280;SDS011;9774;52.034;5.342;2022-07-04T06:33:11;5.82;;;1.80;;
19280;SDS011;9774;52.034;5.342;2022-07-04T06:35:38;3.65;;;1.45;;
19280;SDS011;9774;52.034;5.342;2022-07-04T06:38:11;3.35;;;1.63;;
19280;SDS011;9774;52.034;5.342;2022-07-04T06:40:40;3.17;;;1.60;;
19280;SDS011;9774;52.034;5.342;2022-07-04T06:43:07;5.60;;;1.60;;
19280;SDS011;9774;52.034;5.342;2022-07-04T06:45:35;2.28;;;1.80;;
19280;SDS011;9774;52.034;5.342;2022-07-04T06:48:03;5.68;;;1.90;;
19280;SDS011;9774;52.034;5.342;2022-07-04T06:50:33;5.10;;;1.65;;
19280;SDS011;9774;52.034;5.342;2022-07-04T06:53:00;3.53;;;1.77;;
19280;SDS011;9774;52.034;5.342;2022-07-04T06:55:28;5.50;;;2.10;;
19280;SDS011;9774;52.034;5.342;2022-07-04T06:58:01;4.15;;;1.75;;
19280;SDS011;9774;52.034;5.342;2022-07-04T07:00:29;3.45;;;1.42;;
19280;SDS011;9774;52.034;5.342;2022-07-04T07:02:56;3.63;;;1.90;;
19280;SDS011;9774;52.034;5.342;2022-07-04T07:05:24;4.75;;;1.77;;
19280;SDS011;9774;52.034;5.342;2022-07-04T07:07:53;5.07;;;2.20;;
19280;SDS011;9774;52.034;5.342;2022-07-04T07:10:21;7.90;;;1.73;;
19280;SDS011;9774;52.034;5.342;2022-07-04T07:12:48;5.60;;;2.00;;
19280;SDS011;9774;52.034;5.342;2022-07-04T07:15:16;3.90;;;2.38;;
19280;SDS011;9774;52.034;5.342;2022-07-04T07:17:44;6.07;;;1.83;;
19280;SDS011;9774;52.034;5.342;2022-07-04T07:20:12;2.85;;;1.77;;
19280;SDS011;9774;52.034;5.342;2022-07-04T07:22:39;3.10;;;1.80;;
19280;SDS011;9774;52.034;5.342;2022-07-04T07:25:09;3.58;;;1.73;;
19280;SDS011;9774;52.034;5.342;2022-07-04T07:27:37;4.40;;;1.80;;
19280;SDS011;9774;52.034;5.342;2022-07-04T07:30:06;3.95;;;1.77;;
19280;SDS011;9774;52.034;5.342;2022-07-04T07:32:34;3.88;;;1.80;;
19280;SDS011;9774;52.034;5.342;2022-07-04T07:35:02;4.07;;;1.98;;
19280;SDS011;9774;52.034;5.342;2022-07-04T07:37:29;2.88;;;1.80;;
19280;SDS011;9774;52.034;5.342;2022-07-04T07:39:57;3.33;;;1.70;;
19280;SDS011;9774;52.034;5.342;2022-07-04T07:42:25;3.58;;;2.05;;
19280;SDS011;9774;52.034;5.342;2022-07-04T07:44:53;4.25;;;1.42;;
19280;SDS011;9774;52.034;5.342;2022-07-04T07:47:21;3.83;;;1.65;;
19280;SDS011;9774;52.034;5.342;2022-07-04T07:49:48;3.60;;;1.88;;
19280;SDS011;9774;52.034;5.342;2022-07-04T07:52:15;3.60;;;1.50;;
19280;SDS011;9774;52.034;5.342;2022-07-04T07:54:43;2.45;;;1.33;;
19280;SDS011;9774;52.034;5.342;2022-07-04T07:57:11;1.98;;;1.15;;
19280;SDS011;9774;52.034;5.342;2022-07-04T07:59:39;2.38;;;1.20;;
19280;SDS011;9774;52.034;5.342;2022-07-04T08:02:06;1.55;;;1.35;;
19280;SDS011;9774;52.034;5.342;2022-07-04T08:04:34;2.97;;;1.45;;
19280;SDS011;9774;52.034;5.342;2022-07-04T08:07:01;3.35;;;1.23;;
19280;SDS011;9774;52.034;5.342;2022-07-04T08:09:29;2.47;;;1.23;;
19280;SDS011;9774;52.034;5.342;2022-07-04T08:11:57;2.78;;;1.35;;
19280;SDS011;9774;52.034;5.342;2022-07-04T08:14:25;3.97;;;1.30;;
19280;SDS011;9774;52.034;5.342;2022-07-04T08:16:54;3.30;;;0.80;;
19280;SDS011;9774;52.034;5.342;2022-07-04T08:19:22;1.60;;;1.17;;
19280;SDS011;9774;52.034;5.342;2022-07-04T08:21:50;5.28;;;1.50;;
19280;SDS011;9774;52.034;5.342;2022-07-04T08:24:18;3.20;;;1.15;;
19280;SDS011;9774;52.034;5.342;2022-07-04T08:26:46;2.00;;;1.20;;
19280;SDS011;9774;52.034;5.342;2022-07-04T08:29:14;2.33;;;1.30;;
19280;SDS011;9774;52.034;5.342;2022-07-04T08:31:45;2.80;;;1.10;;
19280;SDS011;9774;52.034;5.342;2022-07-04T08:34:13;2.47;;;1.20;;
19280;SDS011;9774;52.034;5.342;2022-07-04T08:36:41;3.00;;;1.30;;
19280;SDS011;9774;52.034;5.342;2022-07-04T08:39:09;2.38;;;1.30;;
19280;SDS011;9774;52.034;5.342;2022-07-04T08:41:37;1.80;;;1.10;;
19280;SDS011;9774;52.034;5.342;2022-07-04T08:44:05;1.92;;;1.00;;
19280;SDS011;9774;52.034;5.342;2022-07-04T08:46:36;2.17;;;0.98;;
19280;SDS011;9774;52.034;5.342;2022-07-04T08:49:08;2.53;;;1.08;;
19280;SDS011;9774;52.034;5.342;2022-07-04T08:51:51;2.75;;;1.42;;
19280;SDS011;9774;52.034;5.342;2022-07-04T08:54:23;3.78;;;1.27;;
19280;SDS011;9774;52.034;5.342;2022-07-04T08:57:09;3.08;;;1.15;;
19280;SDS011;9774;52.034;5.342;2022-07-04T08:59:55;2.03;;;1.15;;
19280;SDS011;9774;52.034;5.342;2022-07-04T09:02:23;1.67;;;1.10;;
19280;SDS011;9774;52.034;5.342;2022-07-04T09:04:53;2.05;;;1.15;;
19280;SDS011;9774;52.034;5.342;2022-07-04T09:07:22;3.88;;;1.20;;
19280;SDS011;9774;52.034;5.342;2022-07-04T09:09:49;3.10;;;1.27;;
19280;SDS011;9774;52.034;5.342;2022-07-04T09:12:17;7.22;;;1.80;;
19280;SDS011;9774;52.034;5.342;2022-07-04T09:14:44;2.63;;;1.40;;
19280;SDS011;9774;52.034;5.342;2022-07-04T09:17:12;3.00;;;1.40;;
19280;SDS011;9774;52.034;5.342;2022-07-04T09:19:39;4.38;;;1.13;;
19280;SDS011;9774;52.034;5.342;2022-07-04T09:22:08;2.03;;;1.30;;
19280;SDS011;9774;52.034;5.342;2022-07-04T09:24:48;1.52;;;1.23;;
19280;SDS011;9774;52.034;5.342;2022-07-04T09:27:29;2.35;;;1.15;;
19280;SDS011;9774;52.034;5.342;2022-07-04T09:29:58;0.85;;;0.60;;
19280;SDS011;9774;52.034;5.342;2022-07-04T09:35:12;3.08;;;0.98;;
19280;SDS011;9774;52.034;5.342;2022-07-04T09:37:43;2.22;;;1.10;;
19280;SDS011;9774;52.034;5.342;2022-07-04T09:40:22;2.30;;;1.33;;
19280;SDS011;9774;52.034;5.342;2022-07-04T09:42:51;2.33;;;1.20;;
19280;SDS011;9774;52.034;5.342;2022-07-04T09:45:18;1.00;;;0.85;;
19280;SDS011;9774;52.034;5.342;2022-07-04T09:47:49;1.13;;;0.90;;
19280;SDS011;9774;52.034;5.342;2022-07-04T09:50:19;1.38;;;1.10;;
19280;SDS011;9774;52.034;5.342;2022-07-04T09:52:49;3.15;;;1.00;;
19280;SDS011;9774;52.034;5.342;2022-07-04T09:55:23;1.65;;;0.82;;
19280;SDS011;9774;52.034;5.342;2022-07-04T09:57:52;1.15;;;0.80;;
19280;SDS011;9774;52.034;5.342;2022-07-04T10:00:23;1.70;;;1.35;;
19280;SDS011;9774;52.034;5.342;2022-07-04T10:02:53;3.05;;;1.13;;
19280;SDS011;9774;52.034;5.342;2022-07-04T10:05:23;2.40;;;0.95;;
19280;SDS011;9774;52.034;5.342;2022-07-04T10:07:52;3.13;;;1.13;;
19280;SDS011;9774;52.034;5.342;2022-07-04T10:10:30;2.30;;;1.08;;
19280;SDS011;9774;52.034;5.342;2022-07-04T10:12:59;2.60;;;1.20;;
19280;SDS011;9774;52.034;5.342;2022-07-04T10:15:28;2.15;;;1.05;;
19280;SDS011;9774;52.034;5.342;2022-07-04T10:17:56;5.53;;;1.77;;
19280;SDS011;9774;52.034;5.342;2022-07-04T10:20:24;1.80;;;1.17;;
19280;SDS011;9774;52.034;5.342;2022-07-04T10:22:52;2.97;;;1.27;;
19280;SDS011;9774;52.034;5.342;2022-07-04T10:25:19;1.30;;;1.02;;
19280;SDS011;9774;52.034;5.342;2022-07-04T10:27:47;2.28;;;1.17;;
19280;SDS011;9774;52.034;5.342;2022-07-04T10:30:17;6.32;;;1.50;;
19280;SDS011;9774;52.034;5.342;2022-07-04T10:32:50;0.90;;;0.80;;
19280;SDS011;9774;52.034;5.342;2022-07-04T10:38:16;4.15;;;1.90;;
19280;SDS011;9774;52.034;5.342;2022-07-04T10:40:46;2.25;;;1.70;;
19280;SDS011;9774;52.034;5.342;2022-07-04T10:46:35;1.65;;;1.48;;
19280;SDS011;9774;52.034;5.342;2022-07-04T10:49:17;2.72;;;1.20;;
19280;SDS011;9774;52.034;5.342;2022-07-04T10:51:46;1.35;;;0.80;;
19280;SDS011;9774;52.034;5.342;2022-07-04T10:54:15;0.88;;;0.70;;
19280;SDS011;9774;52.034;5.342;2022-07-04T10:56:45;1.40;;;1.00;;
19280;SDS011;9774;52.034;5.342;2022-07-04T10:59:15;1.10;;;0.95;;
19280;SDS011;9774;52.034;5.342;2022-07-04T11:01:50;1.58;;;0.85;;
19280;SDS011;9774;52.034;5.342;2022-07-04T11:07:14;2.08;;;0.82;;
19280;SDS011;9774;52.034;5.342;2022-07-04T11:09:43;1.58;;;0.80;;
19280;SDS011;9774;52.034;5.342;2022-07-04T11:12:12;0.80;;;0.70;;
19280;SDS011;9774;52.034;5.342;2022-07-04T11:14:41;3.05;;;1.00;;
19280;SDS011;9774;52.034;5.342;2022-07-04T11:17:11;1.42;;;0.95;;
19280;SDS011;9774;52.034;5.342;2022-07-04T11:19:39;1.77;;;1.25;;
19280;SDS011;9774;52.034;5.342;2022-07-04T11:22:09;1.38;;;1.13;;
19280;SDS011;9774;52.034;5.342;2022-07-04T11:24:36;1.70;;;0.98;;
19280;SDS011;9774;52.034;5.342;2022-07-04T11:27:06;1.60;;;1.00;;
19280;SDS011;9774;52.034;5.342;2022-07-04T11:29:34;1.00;;;0.60;;
19280;SDS011;9774;52.034;5.342;2022-07-04T11:32:02;0.95;;;0.63;;
19280;SDS011;9774;52.034;5.342;2022-07-04T11:34:33;0.63;;;0.50;;
19280;SDS011;9774;52.034;5.342;2022-07-04T11:37:01;0.60;;;0.57;;
19280;SDS011;9774;52.034;5.342;2022-07-04T11:39:29;1.40;;;1.02;;
19280;SDS011;9774;52.034;5.342;2022-07-04T11:41:57;1.05;;;0.45;;
19280;SDS011;9774;52.034;5.342;2022-07-04T11:44:42;0.68;;;0.50;;
19280;SDS011;9774;52.034;5.342;2022-07-04T11:47:31;1.10;;;0.65;;
19280;SDS011;9774;52.034;5.342;2022-07-04T11:50:02;1.63;;;0.68;;
19280;SDS011;9774;52.034;5.342;2022-07-04T11:52:38;1.85;;;0.90;;
19280;SDS011;9774;52.034;5.342;2022-07-04T11:55:09;0.98;;;0.57;;
19280;SDS011;9774;52.034;5.342;2022-07-04T11:57:39;1.52;;;0.60;;
19280;SDS011;9774;52.034;5.342;2022-07-04T12:00:08;0.60;;;0.50;;
19280;SDS011;9774;52.034;5.342;2022-07-04T12:02:36;1.25;;;0.80;;
19280;SDS011;9774;52.034;5.342;2022-07-04T12:05:06;0.60;;;0.50;;
19280;SDS011;9774;52.034;5.342;2022-07-04T12:07:35;1.52;;;0.50;;
19280;SDS011;9774;52.034;5.342;2022-07-04T12:10:07;1.13;;;0.90;;
19280;SDS011;9774;52.034;5.342;2022-07-04T12:12:49;3.08;;;0.73;;
19280;SDS011;9774;52.034;5.342;2022-07-04T12:15:18;1.20;;;0.70;;
19280;SDS011;9774;52.034;5.342;2022-07-04T12:17:49;1.00;;;0.63;;
19280;SDS011;9774;52.034;5.342;2022-07-04T12:20:18;0.93;;;0.60;;
19280;SDS011;9774;52.034;5.342;2022-07-04T12:22:49;1.05;;;0.70;;
19280;SDS011;9774;52.034;5.342;2022-07-04T12:25:22;0.70;;;0.47;;
19280;SDS011;9774;52.034;5.342;2022-07-04T12:27:53;1.95;;;0.95;;
19280;SDS011;9774;52.034;5.342;2022-07-04T12:30:22;1.73;;;0.75;;
19280;SDS011;9774;52.034;5.342;2022-07-04T12:32:50;0.88;;;0.68;;
19280;SDS011;9774;52.034;5.342;2022-07-04T12:38:09;1.02;;;0.63;;
19280;SDS011;9774;52.034;5.342;2022-07-04T12:40:48;0.77;;;0.60;;
19280;SDS011;9774;52.034;5.342;2022-07-04T12:43:17;1.90;;;0.90;;
19280;SDS011;9774;52.034;5.342;2022-07-04T12:45:46;0.88;;;0.63;;
19280;SDS011;9774;52.034;5.342;2022-07-04T12:48:17;0.68;;;0.60;;
19280;SDS011;9774;52.034;5.342;2022-07-04T12:50:47;0.50;;;0.50;;
19280;SDS011;9774;52.034;5.342;2022-07-04T12:53:15;1.52;;;0.73;;
19280;SDS011;9774;52.034;5.342;2022-07-04T12:55:43;0.93;;;0.63;;
19280;SDS011;9774;52.034;5.342;2022-07-04T12:58:12;0.90;;;0.60;;
19280;SDS011;9774;52.034;5.342;2022-07-04T13:00:39;0.98;;;0.55;;
19280;SDS011;9774;52.034;5.342;2022-07-04T13:03:07;0.82;;;0.60;;
19280;SDS011;9774;52.034;5.342;2022-07-04T13:05:34;1.00;;;0.57;;
19280;SDS011;9774;52.034;5.342;2022-07-04T13:08:05;1.55;;;0.68;;
19280;SDS011;9774;52.034;5.342;2022-07-04T13:10:33;1.30;;;0.68;;
19280;SDS011;9774;52.034;5.342;2022-07-04T13:13:01;1.00;;;0.70;;
19280;SDS011;9774;52.034;5.342;2022-07-04T13:15:28;0.73;;;0.50;;
19280;SDS011;9774;52.034;5.342;2022-07-04T13:17:56;1.05;;;0.60;;
19280;SDS011;9774;52.034;5.342;2022-07-04T13:20:23;0.75;;;0.60;;
19280;SDS011;9774;52.034;5.342;2022-07-04T13:22:50;0.95;;;0.50;;
19280;SDS011;9774;52.034;5.342;2022-07-04T13:25:19;1.02;;;0.52;;
19280;SDS011;9774;52.034;5.342;2022-07-04T13:27:48;0.75;;;0.68;;
19280;SDS011;9774;52.034;5.342;2022-07-04T13:30:15;0.60;;;0.45;;
19280;SDS011;9774;52.034;5.342;2022-07-04T13:32:42;0.93;;;0.70;;
19280;SDS011;9774;52.034;5.342;2022-07-04T13:35:09;0.73;;;0.73;;
19280;SDS011;9774;52.034;5.342;2022-07-04T13:37:37;0.45;;;0.45;;
19280;SDS011;9774;52.034;5.342;2022-07-04T13:40:05;0.60;;;0.57;;
19280;SDS011;9774;52.034;5.342;2022-07-04T13:42:34;1.13;;;0.60;;
19280;SDS011;9774;52.034;5.342;2022-07-04T13:45:19;0.63;;;0.63;;
19280;SDS011;9774;52.034;5.342;2022-07-04T13:47:46;0.82;;;0.52;;
19280;SDS011;9774;52.034;5.342;2022-07-04T13:50:13;0.98;;;0.68;;
19280;SDS011;9774;52.034;5.342;2022-07-04T13:52:41;1.80;;;0.70;;
19280;SDS011;9774;52.034;5.342;2022-07-04T13:55:08;1.63;;;0.70;;
19280;SDS011;9774;52.034;5.342;2022-07-04T13:57:38;1.00;;;0.40;;
19280;SDS011;9774;52.034;5.342;2022-07-04T14:00:05;1.42;;;0.60;;
19280;SDS011;9774;52.034;5.342;2022-07-04T14:02:34;1.02;;;0.60;;
19280;SDS011;9774;52.034;5.342;2022-07-04T14:05:02;0.40;;;0.40;;
19280;SDS011;9774;52.034;5.342;2022-07-04T14:07:30;0.60;;;0.57;;
19280;SDS011;9774;52.034;5.342;2022-07-04T14:09:58;2.17;;;0.70;;
19280;SDS011;9774;52.034;5.342;2022-07-04T14:12:25;1.30;;;0.60;;
19280;SDS011;9774;52.034;5.342;2022-07-04T14:14:54;2.22;;;0.60;;
19280;SDS011;9774;52.034;5.342;2022-07-04T14:17:21;0.93;;;0.52;;
19280;SDS011;9774;52.034;5.342;2022-07-04T14:19:49;3.55;;;0.50;;
19280;SDS011;9774;52.034;5.342;2022-07-04T14:22:16;1.38;;;0.85;;
19280;SDS011;9774;52.034;5.342;2022-07-04T14:24:44;1.02;;;0.60;;
19280;SDS011;9774;52.034;5.342;2022-07-04T14:27:11;1.80;;;0.75;;
19280;SDS011;9774;52.034;5.342;2022-07-04T14:29:38;0.82;;;0.60;;
19280;SDS011;9774;52.034;5.342;2022-07-04T14:32:07;0.75;;;0.60;;
19280;SDS011;9774;52.034;5.342;2022-07-04T14:34:34;1.70;;;0.82;;
19280;SDS011;9774;52.034;5.342;2022-07-04T14:37:02;1.08;;;0.65;;
19280;SDS011;9774;52.034;5.342;2022-07-04T14:39:30;1.38;;;0.52;;
19280;SDS011;9774;52.034;5.342;2022-07-04T14:41:57;0.60;;;0.60;;
19280;SDS011;9774;52.034;5.342;2022-07-04T14:44:24;1.77;;;0.70;;
19280;SDS011;9774;52.034;5.342;2022-07-04T14:46:52;0.80;;;0.60;;
19280;SDS011;9774;52.034;5.342;2022-07-04T14:49:20;2.50;;;0.60;;
19280;SDS011;9774;52.034;5.342;2022-07-04T14:51:48;1.38;;;0.73;;
19280;SDS011;9774;52.034;5.342;2022-07-04T14:54:15;1.35;;;0.75;;
19280;SDS011;9774;52.034;5.342;2022-07-04T14:56:43;1.05;;;0.77;;
19280;SDS011;9774;52.034;5.342;2022-07-04T14:59:10;1.38;;;0.73;;
19280;SDS011;9774;52.034;5.342;2022-07-04T15:01:37;2.13;;;0.60;;
19280;SDS011;9774;52.034;5.342;2022-07-04T15:04:04;1.00;;;0.57;;
19280;SDS011;9774;52.034;5.342;2022-07-04T15:06:33;2.53;;;0.80;;
19280;SDS011;9774;52.034;5.342;2022-07-04T15:09:01;1.17;;;0.63;;
19280;SDS011;9774;52.034;5.342;2022-07-04T15:11:30;0.90;;;0.70;;
19280;SDS011;9774;52.034;5.342;2022-07-04T15:13:57;2.22;;;0.50;;
19280;SDS011;9774;52.034;5.342;2022-07-04T15:16:25;1.98;;;0.60;;
19280;SDS011;9774;52.034;5.342;2022-07-04T15:18:54;1.05;;;0.60;;
19280;SDS011;9774;52.034;5.342;2022-07-04T15:21:21;1.30;;;0.70;;
19280;SDS011;9774;52.034;5.342;2022-07-04T15:24:07;1.75;;;0.70;;